createdAt,value
2023-05-24T00:02:16.774Z,102232.41
2023-05-24T00:04:45.457Z,102232.94
2023-05-24T00:07:12.776Z,102225.69
2023-05-24T00:09:39.906Z,102224.03
2023-05-24T00:12:07.289Z,102223.59
2023-05-24T00:14:34.533Z,102223.34
2023-05-24T00:17:01.797Z,102222.22
2023-05-24T00:19:29.584Z,102222.41
2023-05-24T00:21:56.885Z,102222.06
2023-05-24T00:24:24.044Z,102227.78
2023-05-24T00:26:51.187Z,102230.16
2023-05-24T00:29:18.327Z,102226.69
2023-05-24T00:31:45.590Z,102233.03
2023-05-24T00:34:12.706Z,102220.00
2023-05-24T00:36:39.813Z,102215.19
2023-05-24T00:39:07.149Z,102211.25
2023-05-24T00:41:34.507Z,102217.16
2023-05-24T00:44:01.760Z,102216.75
2023-05-24T00:46:31.185Z,102208.78
2023-05-24T00:48:59.170Z,102203.47
2023-05-24T00:51:30.429Z,102204.25
2023-05-24T00:53:57.709Z,102207.84
2023-05-24T00:56:25.266Z,102208.78
2023-05-24T00:58:56.262Z,102205.97
2023-05-24T01:01:26.827Z,102218.19
2023-05-24T01:03:54.647Z,102211.00
2023-05-24T01:06:22.109Z,102211.28
2023-05-24T01:09:13.648Z,102209.56
2023-05-24T01:11:51.546Z,102206.03
2023-05-24T01:14:26.663Z,102214.00
2023-05-24T01:17:13.567Z,102196.09
2023-05-24T01:19:43.630Z,102206.81
2023-05-24T01:22:44.124Z,102199.44
2023-05-24T01:25:29.367Z,102202.63
2023-05-24T01:27:58.556Z,102205.28
2023-05-24T01:30:29.238Z,102201.66
2023-05-24T01:32:56.673Z,102198.44
2023-05-24T01:35:23.864Z,102203.78
2023-05-24T01:37:52.865Z,102197.56
2023-05-24T01:40:20.200Z,102189.94
2023-05-24T01:43:23.436Z,102190.78
2023-05-24T01:46:08.860Z,102188.25
2023-05-24T01:48:47.557Z,102196.38
2023-05-24T01:51:18.598Z,102193.81
2023-05-24T01:53:49.313Z,102192.75
2023-05-24T01:56:19.763Z,102196.09
2023-05-24T01:58:48.336Z,102196.72
2023-05-24T02:01:15.840Z,102199.28
2023-05-24T02:03:43.050Z,102193.97
2023-05-24T02:06:10.973Z,102198.44
2023-05-24T02:08:38.215Z,102198.44
2023-05-24T02:11:05.570Z,102184.81
2023-05-24T02:13:32.675Z,102190.63
2023-05-24T02:15:59.978Z,102182.41
2023-05-24T02:18:27.220Z,102185.31
2023-05-24T02:20:54.333Z,102193.13
2023-05-24T02:23:21.675Z,102190.72
2023-05-24T02:25:48.971Z,102183.34
2023-05-24T02:28:16.204Z,102189.25
2023-05-24T02:30:45.209Z,102178.72
2023-05-24T02:33:12.756Z,102184.38
2023-05-24T02:35:41.703Z,102177.25
2023-05-24T02:38:09.967Z,102178.56
2023-05-24T02:40:37.259Z,102177.38
2023-05-24T02:43:04.523Z,102173.50
2023-05-24T02:45:31.641Z,102180.44
2023-05-24T02:47:58.881Z,102177.72
2023-05-24T02:50:26.136Z,102177.91
2023-05-24T02:52:53.389Z,102181.81
2023-05-24T02:55:20.559Z,102179.31
2023-05-24T02:57:48.634Z,102178.75
2023-05-24T03:00:16.274Z,102179.25
2023-05-24T03:02:43.494Z,102172.47
2023-05-24T03:05:10.881Z,102181.38
2023-05-24T03:07:38.004Z,102177.09
2023-05-24T03:10:05.747Z,102176.34
2023-05-24T03:12:33.148Z,102172.66
2023-05-24T03:15:00.334Z,102174.13
2023-05-24T03:17:27.580Z,102176.66
2023-05-24T03:19:57.177Z,102170.34
2023-05-24T03:22:24.281Z,102168.38
2023-05-24T03:24:51.387Z,102171.09
2023-05-24T03:27:18.506Z,102171.47
2023-05-24T03:29:45.625Z,102172.47
2023-05-24T03:32:12.722Z,102173.06
2023-05-24T03:34:39.797Z,102177.63
2023-05-24T03:37:06.836Z,102168.66
2023-05-24T03:39:33.955Z,102166.16
2023-05-24T03:42:01.389Z,102173.06
2023-05-24T03:44:28.437Z,102165.50
2023-05-24T03:46:55.541Z,102170.63
2023-05-24T03:49:22.653Z,102165.53
2023-05-24T03:51:49.923Z,102163.06
2023-05-24T03:54:18.420Z,102154.06
2023-05-24T03:56:45.899Z,102161.69
2023-05-24T03:59:13.093Z,102173.25
2023-05-24T04:01:40.272Z,102168.19
2023-05-24T04:04:07.525Z,102162.44
2023-05-24T04:06:36.978Z,102168.72
2023-05-24T04:09:05.957Z,102160.84
2023-05-24T04:11:33.242Z,102163.25
2023-05-24T04:14:00.822Z,102163.94
2023-05-24T04:16:28.215Z,102161.59
2023-05-24T04:18:56.874Z,102162.97
2023-05-24T04:21:24.197Z,102163.81
2023-05-24T04:23:51.351Z,102152.91
2023-05-24T04:26:19.119Z,102172.63
2023-05-24T04:28:47.024Z,102169.22
2023-05-24T04:31:15.789Z,102169.13
2023-05-24T04:33:43.031Z,102178.91
2023-05-24T04:36:11.830Z,102176.97
2023-05-24T04:38:39.892Z,102178.59
2023-05-24T04:41:07.491Z,102187.31
2023-05-24T04:43:35.241Z,102184.66
2023-05-24T04:46:02.463Z,102192.38
2023-05-24T04:48:29.613Z,102177.22
2023-05-24T04:51:01.573Z,102183.22
2023-05-24T04:53:29.134Z,102187.09
2023-05-24T04:55:56.350Z,102194.38
2023-05-24T04:58:23.443Z,102193.25
2023-05-24T05:00:50.899Z,102188.16
2023-05-24T05:03:18.058Z,102186.88
2023-05-24T05:05:46.646Z,102200.16
2023-05-24T05:08:17.157Z,102193.66
2023-05-24T05:10:44.901Z,102192.38
2023-05-24T05:13:12.094Z,102195.91
2023-05-24T05:15:40.494Z,102193.72
2023-05-24T05:18:08.806Z,102195.53
2023-05-24T05:20:35.985Z,102191.59
2023-05-24T05:23:03.492Z,102203.75
2023-05-24T05:25:31.303Z,102202.91
2023-05-24T05:27:58.460Z,102206.25
2023-05-24T05:30:25.601Z,102203.06
2023-05-24T05:32:52.818Z,102207.53
2023-05-24T05:35:20.285Z,102199.56
2023-05-24T05:37:47.353Z,102206.69
2023-05-24T05:40:14.525Z,102208.31
2023-05-24T05:42:41.763Z,102197.94
2023-05-24T05:45:09.570Z,102205.22
2023-05-24T05:47:36.720Z,102202.31
2023-05-24T05:50:04.139Z,102203.75
2023-05-24T05:52:31.435Z,102203.06
2023-05-24T05:54:59.455Z,102202.91
2023-05-24T05:57:27.231Z,102209.50
2023-05-24T05:59:54.374Z,102214.13
2023-05-24T06:02:24.714Z,102212.94
2023-05-24T06:04:51.923Z,102215.59
2023-05-24T06:07:21.988Z,102226.53
2023-05-24T06:09:49.429Z,102213.78
2023-05-24T06:12:16.813Z,102224.50
2023-05-24T06:14:44.472Z,102228.44
2023-05-24T06:17:11.576Z,102223.97
2023-05-24T06:19:39.448Z,102221.91
2023-05-24T06:22:06.803Z,102222.00
2023-05-24T06:24:35.217Z,102230.25
2023-05-24T06:27:04.683Z,102239.06
2023-05-24T06:29:32.672Z,102238.88
2023-05-24T06:32:00.120Z,102237.09
2023-05-24T06:34:27.658Z,102234.34
2023-05-24T06:36:54.728Z,102241.88
2023-05-24T06:39:21.843Z,102244.53
2023-05-24T06:41:51.485Z,102254.38
2023-05-24T06:44:18.973Z,102251.53
2023-05-24T06:46:46.674Z,102256.50
2023-05-24T06:49:13.922Z,102252.22
2023-05-24T06:51:41.129Z,102257.53
2023-05-24T06:54:08.592Z,102255.13
2023-05-24T06:56:35.850Z,102254.09
2023-05-24T06:59:02.971Z,102252.19
2023-05-24T07:01:30.742Z,102256.41
2023-05-24T07:03:58.095Z,102256.75
2023-05-24T07:06:25.323Z,102255.72
2023-05-24T07:08:52.389Z,102257.34
2023-05-24T07:11:20.295Z,102261.97
2023-05-24T07:13:47.434Z,102266.34
2023-05-24T07:16:14.562Z,102261.63
2023-05-24T07:18:42.042Z,102266.84
2023-05-24T07:21:09.474Z,102264.13
2023-05-24T07:23:37.615Z,102269.16
2023-05-24T07:26:05.524Z,102264.59
2023-05-24T07:28:33.093Z,102280.63
2023-05-24T07:31:00.581Z,102275.66
2023-05-24T07:33:27.833Z,102271.41
2023-05-24T07:35:55.004Z,102278.25
2023-05-24T07:38:22.618Z,102270.19
2023-05-24T07:40:49.794Z,102265.28
2023-05-24T07:43:17.038Z,102272.19
2023-05-24T07:45:44.280Z,102263.56
2023-05-24T07:48:11.756Z,102272.97
2023-05-24T07:50:39.287Z,102275.78
2023-05-24T07:53:07.686Z,102275.78
2023-05-24T07:55:34.747Z,102283.13
2023-05-24T07:58:01.817Z,102279.34
2023-05-24T08:00:30.297Z,102290.72
2023-05-24T08:02:57.630Z,102292.53
2023-05-24T08:05:24.785Z,102293.03
2023-05-24T08:07:52.804Z,102290.50
2023-05-24T08:10:23.580Z,102295.03
2023-05-24T08:12:54.959Z,102287.59
2023-05-24T08:15:22.020Z,102289.59
2023-05-24T08:17:49.738Z,102291.47
2023-05-24T08:20:17.998Z,102289.41
2023-05-24T08:22:45.393Z,102294.28
2023-05-24T08:25:12.550Z,102295.31
2023-05-24T08:27:40.324Z,102294.28
2023-05-24T08:30:10.568Z,102303.84
2023-05-24T08:32:38.554Z,102306.91
2023-05-24T08:35:18.572Z,102306.63
2023-05-24T08:37:48.293Z,102301.59
2023-05-24T08:40:15.714Z,102306.06
2023-05-24T08:42:42.935Z,102316.97
2023-05-24T08:45:14.915Z,102309.84
2023-05-24T08:47:42.785Z,102316.13
2023-05-24T08:50:11.458Z,102321.28
2023-05-24T08:52:39.961Z,102326.50
2023-05-24T08:55:07.972Z,102322.03
2023-05-24T08:57:40.137Z,102323.56
2023-05-24T09:00:10.603Z,102316.06
2023-05-24T09:02:39.800Z,102319.34
2023-05-24T09:05:11.071Z,102326.97
2023-05-24T09:07:39.068Z,102328.16
2023-05-24T09:10:07.889Z,102325.84
2023-05-24T09:12:38.582Z,102329.13
2023-05-24T09:15:08.208Z,102324.66
2023-05-24T09:17:37.116Z,102325.44
2023-05-24T09:20:10.609Z,102325.94
2023-05-24T09:22:41.185Z,102317.66
2023-05-24T09:25:11.174Z,102325.38
2023-05-24T09:27:38.643Z,102330.19
2023-05-24T09:30:13.010Z,102334.47
2023-05-24T09:32:41.577Z,102342.25
2023-05-24T09:35:10.142Z,102337.44
2023-05-24T09:37:39.179Z,102336.84
2023-05-24T09:40:09.103Z,102336.84
2023-05-24T09:42:36.222Z,102334.50
2023-05-24T09:45:09.608Z,102337.91
2023-05-24T09:47:38.844Z,102346.75
2023-05-24T09:50:13.047Z,102343.63
2023-05-24T09:52:41.221Z,102342.41
2023-05-24T09:55:16.157Z,102354.47
2023-05-24T09:57:45.273Z,102345.91
2023-05-24T10:00:21.925Z,102346.25
2023-05-24T10:03:04.877Z,102346.81
2023-05-24T10:05:32.310Z,102343.13
2023-05-24T10:08:01.172Z,102348.03
2023-05-24T10:10:30.188Z,102345.72
2023-05-24T10:12:58.509Z,102337.09
2023-05-24T10:15:26.370Z,102338.22
2023-05-24T10:17:57.473Z,102337.59
2023-05-24T10:20:24.953Z,102345.00
2023-05-24T10:22:59.623Z,102356.19
2023-05-24T10:25:28.852Z,102348.53
2023-05-24T10:27:59.073Z,102349.91
2023-05-24T10:30:37.973Z,102356.00
2023-05-24T10:33:08.236Z,102350.63
2023-05-24T10:35:38.442Z,102350.91
2023-05-24T10:38:07.918Z,102348.78
2023-05-24T10:40:35.821Z,102347.44
2023-05-24T10:43:08.666Z,102346.00
2023-05-24T10:45:42.358Z,102338.34
2023-05-24T10:48:10.237Z,102348.19
2023-05-24T10:50:37.665Z,102341.59
2023-05-24T10:53:15.118Z,102351.03
2023-05-24T10:56:08.823Z,102351.69
2023-05-24T10:59:00.497Z,102355.22
2023-05-24T11:01:32.351Z,102349.78
2023-05-24T11:04:17.117Z,102358.13
2023-05-24T11:06:50.836Z,102359.84
2023-05-24T11:09:20.319Z,102353.22
2023-05-24T11:11:50.238Z,102358.06
2023-05-24T11:14:32.969Z,102363.72
2023-05-24T11:17:01.156Z,102357.75
2023-05-24T11:19:37.522Z,102364.38
2023-05-24T11:22:08.336Z,102361.81
2023-05-24T11:24:36.490Z,102361.59
2023-05-24T11:27:04.054Z,102359.78
2023-05-24T11:29:31.210Z,102361.16
2023-05-24T11:32:11.292Z,102365.47
2023-05-24T11:34:47.551Z,102360.44
2023-05-24T11:37:17.500Z,102372.81
2023-05-24T11:39:52.627Z,102367.28
2023-05-24T11:42:23.622Z,102374.31
2023-05-24T11:44:52.311Z,102373.09
2023-05-24T11:47:21.571Z,102374.78
2023-05-24T11:49:52.836Z,102375.84
2023-05-24T11:52:20.428Z,102384.59
2023-05-24T11:54:47.770Z,102383.09
2023-05-24T11:57:15.939Z,102387.56
2023-05-24T11:59:46.835Z,102390.81
2023-05-24T12:02:14.650Z,102392.34
2023-05-24T12:04:41.879Z,102394.22
2023-05-24T12:07:15.587Z,102397.84
2023-05-24T12:09:42.719Z,102390.25
2023-05-24T12:12:10.732Z,102393.09
2023-05-24T12:14:43.628Z,102397.97
2023-05-24T12:17:18.798Z,102399.00
2023-05-24T12:19:50.271Z,102395.97
2023-05-24T12:22:17.543Z,102394.03
2023-05-24T12:24:44.731Z,102399.50
2023-05-24T12:27:11.940Z,102386.72
2023-05-24T12:29:41.956Z,102389.56
2023-05-24T12:32:13.897Z,102390.41
2023-05-24T12:34:43.079Z,102386.38
2023-05-24T12:37:12.937Z,102393.91
2023-05-24T12:39:44.437Z,102399.13
2023-05-24T12:42:14.669Z,102409.22
2023-05-24T12:44:45.649Z,102401.06
2023-05-24T12:47:13.080Z,102402.78
2023-05-24T12:49:40.427Z,102399.31
2023-05-24T12:52:07.709Z,102404.63
2023-05-24T12:54:37.623Z,102404.88
2023-05-24T12:57:05.343Z,102403.59
2023-05-24T12:59:33.574Z,102406.44
2023-05-24T13:02:00.984Z,102418.75
2023-05-24T13:04:28.285Z,102415.44
2023-05-24T13:06:55.878Z,102408.94
2023-05-24T13:09:23.874Z,102408.28
2023-05-24T13:11:52.747Z,102400.00
2023-05-24T13:14:20.432Z,102401.28
2023-05-24T13:16:48.199Z,102399.16
2023-05-24T13:19:15.541Z,102399.91
2023-05-24T13:21:42.861Z,102400.09
2023-05-24T13:24:10.263Z,102406.19
2023-05-24T13:26:39.046Z,102415.91
2023-05-24T13:31:41.335Z,102411.03
2023-05-24T13:34:10.525Z,102409.13
2023-05-24T13:36:38.373Z,102413.03
2023-05-24T13:41:39.027Z,102410.88
2023-05-24T13:44:07.442Z,102412.78
2023-05-24T13:46:36.754Z,102412.31
2023-05-24T13:49:04.778Z,102413.53
2023-05-24T13:51:33.288Z,102410.69
2023-05-24T13:54:01.384Z,102408.69
2023-05-24T13:56:33.266Z,102405.34
2023-05-24T13:59:04.871Z,102405.88
2023-05-24T14:01:33.232Z,102409.25
2023-05-24T14:04:01.854Z,102410.63
2023-05-24T14:06:29.112Z,102410.63
2023-05-24T14:08:56.323Z,102419.09
2023-05-24T14:16:22.250Z,102413.63
2023-05-24T14:18:51.899Z,102411.22
2023-05-24T14:21:21.839Z,102411.34
2023-05-24T14:23:49.698Z,102412.28
2023-05-24T14:26:17.456Z,102413.22
2023-05-24T14:28:44.599Z,102410.63
2023-05-24T14:31:11.826Z,102412.41
2023-05-24T14:33:39.050Z,102408.59
2023-05-24T14:36:06.691Z,102413.38
2023-05-24T14:38:33.834Z,102412.22
2023-05-24T14:41:01.812Z,102420.50
2023-05-24T14:43:29.474Z,102412.81
2023-05-24T14:45:56.699Z,102410.56
2023-05-24T14:48:23.891Z,102411.53
2023-05-24T14:50:50.967Z,102414.84
2023-05-24T14:53:18.121Z,102415.44
2023-05-24T14:55:45.367Z,102411.28
2023-05-24T14:58:12.894Z,102408.63
2023-05-24T15:00:41.543Z,102399.66
2023-05-24T15:03:09.350Z,102414.94
2023-05-24T15:05:36.913Z,102413.56
2023-05-24T15:08:05.760Z,102413.22
2023-05-24T15:10:33.546Z,102409.72
2023-05-24T15:13:01.696Z,102412.81
2023-05-24T15:15:29.064Z,102409.28
2023-05-24T15:17:57.787Z,102416.97
2023-05-24T15:20:25.919Z,102406.16
2023-05-24T15:22:53.364Z,102418.25
2023-05-24T15:25:21.164Z,102427.22
2023-05-24T15:27:58.166Z,102419.81
2023-05-24T15:30:25.296Z,102421.59
2023-05-24T15:32:52.392Z,102426.72
2023-05-24T15:35:19.704Z,102421.38
2023-05-24T15:37:46.787Z,102426.84
2023-05-24T15:40:15.205Z,102419.16
2023-05-24T15:42:42.392Z,102417.00
2023-05-24T15:45:10.134Z,102424.13
2023-05-24T15:47:40.085Z,102428.72
2023-05-24T15:50:08.712Z,102423.50
2023-05-24T15:52:36.665Z,102423.53
2023-05-24T15:55:04.793Z,102433.00
2023-05-24T15:57:32.365Z,102430.81
2023-05-24T15:59:59.508Z,102433.66
2023-05-24T16:02:27.219Z,102432.25
2023-05-24T16:04:55.659Z,102419.09
2023-05-24T16:07:26.244Z,102429.69
2023-05-24T16:09:54.222Z,102431.59
2023-05-24T16:12:26.130Z,102428.06
2023-05-24T16:14:54.397Z,102431.19
2023-05-24T16:17:21.607Z,102427.25
2023-05-24T16:19:49.882Z,102425.94
2023-05-24T16:22:17.447Z,102418.38
2023-05-24T16:24:47.725Z,102423.72
2023-05-24T16:27:15.121Z,102419.69
2023-05-24T16:29:42.456Z,102416.63
2023-05-24T16:32:09.809Z,102409.66
2023-05-24T16:34:54.875Z,102410.38
2023-05-24T16:37:23.052Z,102404.84
2023-05-24T16:39:50.362Z,102412.41
2023-05-24T16:42:17.634Z,102408.59
2023-05-24T16:44:47.926Z,102407.00
2023-05-24T16:47:15.528Z,102415.41
2023-05-24T16:49:42.593Z,102416.56
2023-05-24T16:52:09.715Z,102407.72
2023-05-24T16:54:36.852Z,102405.88
2023-05-24T16:57:04.033Z,102412.22
2023-05-24T16:59:31.506Z,102415.00
2023-05-24T17:01:58.765Z,102417.41
2023-05-24T17:04:26.178Z,102420.53
2023-05-24T17:06:53.579Z,102419.41
2023-05-24T17:09:20.987Z,102425.47
2023-05-24T17:11:49.359Z,102425.81
2023-05-24T17:14:17.980Z,102422.63
2023-05-24T17:16:45.730Z,102427.28
2023-05-24T17:19:14.200Z,102438.06
2023-05-24T17:21:41.483Z,102429.69
2023-05-24T17:24:08.638Z,102427.31
2023-05-24T17:26:35.921Z,102431.34
2023-05-24T17:29:03.419Z,102432.84
2023-05-24T17:31:30.679Z,102426.97
2023-05-24T17:34:01.059Z,102433.91
2023-05-24T17:36:28.367Z,102435.16
2023-05-24T17:38:55.566Z,102430.88
2023-05-24T17:41:26.315Z,102435.09
2023-05-24T17:43:53.482Z,102439.81
2023-05-24T17:46:20.831Z,102437.16
2023-05-24T17:48:48.021Z,102443.16
2023-05-24T17:51:17.732Z,102440.59
2023-05-24T17:53:48.279Z,102441.34
2023-05-24T17:56:15.655Z,102446.78
2023-05-24T17:58:44.928Z,102448.78
2023-05-24T18:01:14.036Z,102444.50
2023-05-24T18:03:43.188Z,102456.41
2023-05-24T18:06:13.040Z,102447.81
2023-05-24T18:08:43.813Z,102451.25
2023-05-24T18:11:13.623Z,102453.16
2023-05-24T18:13:43.240Z,102448.09
2023-05-24T18:16:11.901Z,102454.50
2023-05-24T18:18:39.405Z,102457.16
2023-05-24T18:21:09.771Z,102457.44
2023-05-24T18:23:39.825Z,102452.88
2023-05-24T18:26:08.569Z,102458.31
2023-05-24T18:28:39.402Z,102457.16
2023-05-24T18:31:08.825Z,102459.81
2023-05-24T18:33:37.998Z,102462.84
2023-05-24T18:36:05.968Z,102456.78
2023-05-24T18:38:37.413Z,102460.19
2023-05-24T18:41:06.506Z,102457.44
2023-05-24T18:43:36.992Z,102458.31
2023-05-24T18:46:04.574Z,102463.72
2023-05-24T18:48:31.821Z,102469.81
2023-05-24T18:50:58.972Z,102460.66
2023-05-24T18:53:26.127Z,102467.91
2023-05-24T18:55:53.702Z,102469.63
2023-05-24T18:58:21.244Z,102460.66
2023-05-24T19:00:48.448Z,102462.00
2023-05-24T19:03:15.641Z,102463.25
2023-05-24T19:05:44.133Z,102467.91
2023-05-24T19:08:11.722Z,102465.25
2023-05-24T19:10:38.970Z,102470.59
2023-05-24T19:13:06.654Z,102472.41
2023-05-24T19:15:35.650Z,102476.47
2023-05-24T19:18:03.927Z,102466.47
2023-05-24T19:20:31.232Z,102470.09
2023-05-24T19:22:58.933Z,102467.44
2023-05-24T19:25:26.045Z,102476.94
2023-05-24T19:30:23.435Z,102483.50
2023-05-24T19:32:51.101Z,102481.59
2023-05-24T19:35:18.227Z,102478.34
2023-05-24T19:37:45.481Z,102482.53
2023-05-24T19:40:12.534Z,102490.44
2023-05-24T19:42:39.602Z,102489.19
2023-05-24T19:45:07.453Z,102496.66
2023-05-24T19:47:34.708Z,102512.34
2023-05-24T19:50:02.029Z,102514.25
2023-05-24T19:52:29.239Z,102515.88
2023-05-24T19:54:59.047Z,102516.81
2023-05-24T19:57:26.595Z,102515.09
2023-05-24T19:59:53.728Z,102517.09
2023-05-24T20:02:21.150Z,102513.56
2023-05-24T20:04:49.272Z,102518.19
2023-05-24T20:07:16.502Z,102524.22
2023-05-24T20:09:44.371Z,102519.66
2023-05-24T20:12:12.194Z,102524.41
2023-05-24T20:14:39.378Z,102527.16
2023-05-24T20:17:06.572Z,102533.44
2023-05-24T20:19:33.684Z,102527.31
2023-05-24T20:22:00.836Z,102538.06
2023-05-24T20:24:27.910Z,102539.59
2023-05-24T20:26:54.983Z,102537.28
2023-05-24T20:29:22.087Z,102540.56
2023-05-24T20:31:49.558Z,102541.59
2023-05-24T20:34:16.823Z,102545.53
2023-05-24T20:36:46.382Z,102542.97
2023-05-24T20:39:13.464Z,102544.88
2023-05-24T20:41:40.607Z,102543.25
2023-05-24T20:44:07.714Z,102547.94
2023-05-24T20:46:35.001Z,102544.25
2023-05-24T20:49:02.460Z,102549.84
2023-05-24T20:51:29.616Z,102558.16
2023-05-24T20:54:00.047Z,102555.34
2023-05-24T20:56:27.663Z,102558.09
2023-05-24T20:58:56.792Z,102564.44
2023-05-24T21:01:24.270Z,102565.56
2023-05-24T21:03:51.485Z,102567.81
2023-05-24T21:06:21.017Z,102565.16
2023-05-24T21:08:48.552Z,102569.78
2023-05-24T21:11:15.726Z,102566.97
2023-05-24T21:13:42.842Z,102573.41
2023-05-24T21:16:10.379Z,102576.75
2023-05-24T21:18:37.630Z,102579.84
2023-05-24T21:21:06.238Z,102570.47
2023-05-24T21:23:33.384Z,102575.81
2023-05-24T21:26:03.233Z,102567.47
2023-05-24T21:28:30.271Z,102570.28
2023-05-24T21:30:57.736Z,102576.41
2023-05-24T21:33:24.962Z,102576.50
2023-05-24T21:35:52.052Z,102576.56
2023-05-24T21:38:19.122Z,102589.56
2023-05-24T21:40:46.465Z,102581.13
2023-05-24T21:43:13.566Z,102582.50
2023-05-24T21:45:41.188Z,102583.91
2023-05-24T21:48:08.921Z,102585.41
2023-05-24T21:50:36.090Z,102589.00
2023-05-24T21:53:03.567Z,102587.13
2023-05-24T21:55:30.801Z,102587.00
2023-05-24T21:57:57.860Z,102589.41
2023-05-24T22:00:27.111Z,102589.69
2023-05-24T22:02:54.649Z,102589.59
2023-05-24T22:05:21.818Z,102593.16
2023-05-24T22:07:48.983Z,102594.91
2023-05-24T22:10:16.142Z,102589.38
2023-05-24T22:12:43.198Z,102593.63
2023-05-24T22:15:11.011Z,102598.03
2023-05-24T22:17:41.181Z,102594.75
2023-05-24T22:20:09.502Z,102597.53
2023-05-24T22:22:48.962Z,102595.63
2023-05-24T22:25:19.661Z,102598.22
2023-05-24T22:27:48.753Z,102593.69
2023-05-24T22:30:17.359Z,102599.66
2023-05-24T22:32:44.675Z,102609.97
2023-05-24T22:35:11.894Z,102602.16
2023-05-24T22:37:39.058Z,102607.91
2023-05-24T22:40:06.739Z,102600.94
2023-05-24T22:42:33.923Z,102603.84
2023-05-24T22:45:01.135Z,102601.75
2023-05-24T22:47:33.411Z,102601.25
2023-05-24T22:50:02.280Z,102609.66
2023-05-24T22:52:30.486Z,102608.25
2023-05-24T22:54:57.612Z,102609.38
2023-05-24T22:57:24.813Z,102604.97
2023-05-24T22:59:52.036Z,102606.72
2023-05-24T23:02:19.425Z,102598.94
2023-05-24T23:04:46.665Z,102604.63
2023-05-24T23:07:17.433Z,102610.25
2023-05-24T23:09:44.657Z,102608.09
2023-05-24T23:12:12.144Z,102615.22
2023-05-24T23:14:41.865Z,102606.78
2023-05-24T23:17:15.690Z,102620.53
2023-05-24T23:19:46.674Z,102617.03
2023-05-24T23:22:18.477Z,102616.16
2023-05-24T23:24:47.702Z,102610.06
2023-05-24T23:27:15.215Z,102615.16
2023-05-24T23:29:42.369Z,102607.50
2023-05-24T23:32:10.412Z,102604.44
2023-05-24T23:34:37.722Z,102609.75
2023-05-24T23:37:05.853Z,102620.16
2023-05-24T23:39:32.969Z,102618.69
2023-05-24T23:42:00.056Z,102614.16
2023-05-24T23:44:27.104Z,102609.97
2023-05-24T23:46:54.260Z,102609.56
2023-05-24T23:49:21.574Z,102617.53
2023-05-24T23:51:48.804Z,102617.47
2023-05-24T23:54:16.123Z,102614.81
2023-05-24T23:56:43.244Z,102611.03
2023-05-24T23:59:10.617Z,102613.88
